Time;durP1;ratioP1;P1;durP2;ratioP2;P2;SDS_P1;SDS_P2;PMS_P1;PMS_P2;Temp;Humidity;BMP_temperature;BMP_pressure;BME280_temperature;BME280_humidity;BME280_pressure;Samples;Min_cycle;Max_cycle;Signal;HPM_P1;HPM_P2
2023/07/02 00:00:28;;;;;;;1.52;1.38;;;24.50;57.40;;;;;;5028750;27;90758;-91
2023/07/02 00:02:54;;;;;;;1.55;1.45;;;24.40;57.30;;;;;;5029350;27;88128;-91
2023/07/02 00:05:19;;;;;;;2.72;1.92;;;24.40;57.30;;;;;;5029550;27;87447;-91
2023/07/02 00:07:45;;;;;;;1.55;1.45;;;24.50;57.10;;;;;;5027000;27;89180;-91
2023/07/02 00:10:11;;;;;;;1.83;1.63;;;24.50;57.10;;;;;;5029322;27;87600;-91
2023/07/02 00:12:36;;;;;;;2.05;1.73;;;24.50;57.20;;;;;;5027744;27;89962;-91
2023/07/02 00:15:02;;;;;;;2.03;1.83;;;24.50;57.30;;;;;;5031430;27;87542;-90
2023/07/02 00:17:28;;;;;;;3.22;1.92;;;24.40;57.40;;;;;;5029135;27;91138;-92
2023/07/02 00:19:54;;;;;;;2.63;1.70;;;24.50;57.10;;;;;;5027880;27;88856;-91
2023/07/02 00:22:20;;;;;;;2.20;1.63;;;24.40;57.30;;;;;;5025471;27;92048;-90
2023/07/02 00:24:46;;;;;;;1.95;1.70;;;24.40;57.30;;;;;;5025800;27;87783;-92
2023/07/02 00:27:11;;;;;;;3.53;1.88;;;24.40;58.00;;;;;;5027682;27;90234;-92
2023/07/02 00:29:37;;;;;;;2.55;1.60;;;24.40;57.20;;;;;;5027234;27;88104;-92
2023/07/02 00:32:03;;;;;;;2.05;1.80;;;24.40;57.00;;;;;;5028425;27;87862;-91
2023/07/02 00:34:29;;;;;;;2.33;1.95;;;24.40;57.10;;;;;;5027259;27;87480;-92
2023/07/02 00:36:54;;;;;;;1.98;1.60;;;24.40;57.20;;;;;;5030039;27;89294;-91
2023/07/02 00:39:20;;;;;;;1.85;1.73;;;24.40;57.10;;;;;;5032214;27;88659;-92
2023/07/02 00:41:46;;;;;;;3.28;1.90;;;24.40;57.20;;;;;;5030519;27;90013;-92
2023/07/02 00:44:13;;;;;;;2.38;1.92;;;24.50;57.20;;;;;;5030744;27;88328;-91
2023/07/02 00:46:38;;;;;;;2.17;1.98;;;24.40;57.00;;;;;;5029848;27;88858;-91
2023/07/02 00:49:05;;;;;;;2.75;2.10;;;24.40;57.10;;;;;;5028781;27;89562;-91
2023/07/02 00:51:30;;;;;;;1.90;1.70;;;24.40;57.10;;;;;;5030102;27;90802;-91
2023/07/02 00:53:58;;;;;;;3.13;1.83;;;24.50;56.90;;;;;;5030255;27;87461;-92
2023/07/02 00:56:25;;;;;;;2.15;1.80;;;24.50;56.80;;;;;;5029987;27;89762;-90
2023/07/02 00:58:53;;;;;;;1.85;1.63;;;24.50;56.70;;;;;;5030542;27;90608;-91
2023/07/02 01:01:25;;;;;;;1.85;1.50;;;24.40;56.70;;;;;;5030338;27;88894;-89
2023/07/02 01:04:01;;;;;;;2.85;1.98;;;24.40;56.80;;;;;;5048669;27;87317;-93
2023/07/02 01:06:32;;;;;;;2.08;1.88;;;24.40;57.00;;;;;;5032848;27;87731;-92
2023/07/02 01:09:00;;;;;;;2.83;2.00;;;24.50;56.90;;;;;;5029293;27;95854;-93
2023/07/02 01:11:31;;;;;;;2.65;2.28;;;24.50;56.70;;;;;;5029700;27;90454;-91
2023/07/02 01:14:04;;;;;;;2.40;2.03;;;24.40;56.90;;;;;;5031150;27;86938;-92
2023/07/02 01:16:32;;;;;;;2.65;2.10;;;24.40;57.00;;;;;;5030663;27;87334;-92
2023/07/02 01:19:03;;;;;;;2.20;2.00;;;24.40;56.90;;;;;;5031538;27;88326;-91
2023/07/02 01:21:29;;;;;;;2.20;1.85;;;24.40;56.90;;;;;;5033876;27;87541;-90
2023/07/02 01:23:54;;;;;;;2.13;1.85;;;24.50;56.80;;;;;;5030611;27;87699;-92
2023/07/02 01:26:20;;;;;;;2.75;1.98;;;24.40;56.60;;;;;;5028849;27;88748;-91
2023/07/02 01:28:46;;;;;;;2.63;2.05;;;24.40;56.90;;;;;;5030114;27;91020;-91
2023/07/02 01:31:11;;;;;;;2.20;1.95;;;24.40;56.90;;;;;;5029098;27;90861;-92
2023/07/02 01:33:37;;;;;;;3.55;2.55;;;24.40;56.90;;;;;;5030532;27;88348;-92
2023/07/02 01:36:03;;;;;;;2.50;2.30;;;24.40;56.90;;;;;;5030491;27;89791;-92
2023/07/02 01:38:28;;;;;;;2.47;2.05;;;24.40;56.70;;;;;;5032074;27;88092;-92
2023/07/02 01:40:54;;;;;;;2.63;2.40;;;24.50;56.60;;;;;;5030200;27;90221;-92
2023/07/02 01:43:20;;;;;;;2.25;1.92;;;24.40;56.60;;;;;;5030752;27;87082;-90
2023/07/02 01:45:45;;;;;;;2.58;2.10;;;24.50;56.60;;;;;;5031061;27;89362;-91
2023/07/02 01:48:11;;;;;;;2.40;2.10;;;24.40;56.70;;;;;;5046415;27;90475;-91
2023/07/02 01:50:37;;;;;;;3.15;1.95;;;24.40;56.70;;;;;;5030271;27;90365;-91
2023/07/02 01:53:02;;;;;;;3.10;2.40;;;24.40;56.70;;;;;;5029227;27;87209;-93
2023/07/02 01:55:28;;;;;;;2.85;2.38;;;24.30;57.00;;;;;;5028212;27;89875;-92
2023/07/02 01:57:53;;;;;;;2.92;2.10;;;24.30;56.90;;;;;;5029518;27;90676;-91
2023/07/02 02:00:19;;;;;;;3.13;2.22;;;24.30;56.80;;;;;;5031779;27;88696;-91
2023/07/02 02:02:45;;;;;;;2.80;2.35;;;24.30;56.90;;;;;;5030550;27;87111;-92
2023/07/02 02:05:10;;;;;;;3.92;2.30;;;24.30;56.70;;;;;;5028009;27;91104;-91
2023/07/02 02:07:36;;;;;;;3.17;2.40;;;24.30;56.70;;;;;;5029666;27;90788;-92
2023/07/02 02:10:04;;;;;;;2.58;2.38;;;24.30;56.50;;;;;;5029584;27;89753;-91
2023/07/02 02:12:30;;;;;;;2.92;2.60;;;24.30;56.70;;;;;;5031011;27;86995;-91
2023/07/02 02:14:56;;;;;;;3.33;2.50;;;24.30;56.90;;;;;;5031098;27;93939;-91
2023/07/02 02:17:23;;;;;;;3.38;2.55;;;24.20;56.90;;;;;;5029142;27;90777;-90
2023/07/02 02:19:49;;;;;;;3.00;2.70;;;24.20;57.20;;;;;;5029253;27;90716;-90
2023/07/02 02:22:15;;;;;;;2.92;2.63;;;24.10;57.20;;;;;;5029754;27;88032;-92
2023/07/02 02:24:40;;;;;;;3.40;2.55;;;24.10;57.20;;;;;;5029057;27;86943;-90
2023/07/02 02:27:06;;;;;;;3.65;2.80;;;24.20;56.90;;;;;;5029522;27;89042;-91
2023/07/02 02:29:31;;;;;;;3.00;2.45;;;24.20;57.00;;;;;;5028825;27;90181;-90
2023/07/02 02:31:57;;;;;;;3.72;3.15;;;24.20;56.90;;;;;;5027730;27;86870;-92
2023/07/02 02:34:23;;;;;;;2.45;2.22;;;24.20;57.00;;;;;;5029157;27;89604;-91
2023/07/02 02:36:49;;;;;;;3.22;2.92;;;24.20;56.90;;;;;;5028612;27;91588;-91
2023/07/02 02:39:14;;;;;;;3.75;3.15;;;24.20;57.00;;;;;;5029614;27;90194;-90
2023/07/02 02:41:41;;;;;;;3.35;2.85;;;24.30;56.80;;;;;;5029937;27;87311;-92
2023/07/02 02:44:07;;;;;;;3.78;2.83;;;24.30;56.80;;;;;;5027743;27;89303;-91
2023/07/02 02:46:32;;;;;;;3.47;2.78;;;24.20;56.70;;;;;;5029726;27;89201;-92
2023/07/02 02:48:58;;;;;;;3.65;2.88;;;24.20;56.70;;;;;;5028927;27;91019;-91
2023/07/02 02:51:23;;;;;;;3.15;2.80;;;24.20;56.90;;;;;;5029007;27;88126;-90
2023/07/02 02:53:49;;;;;;;3.70;3.05;;;24.20;56.70;;;;;;5031179;27;87727;-89
2023/07/02 02:56:15;;;;;;;4.05;2.92;;;24.20;56.70;;;;;;5031190;27;87825;-90
2023/07/02 02:58:40;;;;;;;3.97;3.08;;;24.20;56.70;;;;;;5028386;27;90184;-92
2023/07/02 03:01:10;;;;;;;3.55;3.25;;;24.20;56.90;;;;;;5028196;27;87938;-90
2023/07/02 03:03:39;;;;;;;2.97;2.60;;;24.20;56.50;;;;;;5029535;27;89371;-91
2023/07/02 03:06:05;;;;;;;4.90;3.42;;;24.20;56.60;;;;;;5028170;27;90826;-92
2023/07/02 03:08:31;;;;;;;5.45;3.42;;;24.20;56.50;;;;;;5028839;27;88647;-90
2023/07/02 03:10:57;;;;;;;3.72;3.00;;;24.20;56.50;;;;;;5028254;27;88403;-92
2023/07/02 03:13:22;;;;;;;3.88;3.10;;;24.20;56.50;;;;;;5025894;27;89960;-91
2023/07/02 03:15:48;;;;;;;4.85;3.47;;;24.30;56.80;;;;;;5028541;27;88293;-91
2023/07/02 03:18:13;;;;;;;4.57;3.67;;;24.20;56.70;;;;;;5043269;27;90058;-91
2023/07/02 03:20:39;;;;;;;3.95;3.53;;;24.20;56.60;;;;;;5026735;27;87275;-91
2023/07/02 03:23:05;;;;;;;4.88;3.47;;;24.20;56.70;;;;;;5027528;27;88065;-91
2023/07/02 03:25:30;;;;;;;4.47;3.72;;;24.30;57.30;;;;;;5028714;27;90627;-92
2023/07/02 03:27:56;;;;;;;4.40;3.58;;;24.30;56.40;;;;;;5028731;27;89846;-90
2023/07/02 03:30:22;;;;;;;4.57;3.53;;;24.30;56.30;;;;;;5030154;27;87682;-91
2023/07/02 03:32:47;;;;;;;5.65;3.72;;;24.30;56.30;;;;;;5028064;27;88994;-90
2023/07/02 03:35:13;;;;;;;5.15;3.80;;;24.30;56.70;;;;;;5026321;27;91771;-90
2023/07/02 03:37:41;;;;;;;5.18;3.70;;;24.30;56.50;;;;;;5027967;27;91132;-91
2023/07/02 03:40:07;;;;;;;3.97;3.40;;;24.20;56.40;;;;;;5027720;27;88601;-91
2023/07/02 03:42:33;;;;;;;4.45;3.50;;;24.20;56.40;;;;;;5044518;27;90707;-91
2023/07/02 03:44:59;;;;;;;6.50;3.90;;;24.30;56.90;;;;;;5029835;27;88057;-91
2023/07/02 03:47:25;;;;;;;4.00;3.47;;;24.30;56.80;;;;;;5028203;27;90229;-91
2023/07/02 03:49:50;;;;;;;5.70;3.97;;;24.20;56.30;;;;;;5028357;27;88672;-92
2023/07/02 03:52:16;;;;;;;4.95;4.05;;;24.30;56.30;;;;;;5029129;27;89284;-89
2023/07/02 03:54:42;;;;;;;6.45;3.80;;;24.20;56.30;;;;;;5044251;27;90999;-90
2023/07/02 03:57:07;;;;;;;5.07;4.28;;;24.20;56.30;;;;;;5029174;27;90800;-90
2023/07/02 03:59:33;;;;;;;4.28;3.83;;;24.20;56.10;;;;;;5029081;27;88921;-91
2023/07/02 04:01:59;;;;;;;4.75;4.05;;;24.20;56.20;;;;;;5027165;27;87928;-92
2023/07/02 04:04:25;;;;;;;5.40;4.40;;;24.20;56.10;;;;;;5028376;27;90492;-91
2023/07/02 04:06:53;;;;;;;5.88;4.78;;;24.20;56.30;;;;;;5027347;27;90290;-92
2023/07/02 04:09:18;;;;;;;5.40;4.03;;;24.20;56.20;;;;;;5028789;27;87359;-92
2023/07/02 04:11:47;;;;;;;5.22;3.72;;;24.20;56.30;;;;;;5028506;27;89534;-91
2023/07/02 04:14:13;;;;;;;4.93;3.97;;;24.20;56.40;;;;;;5043583;27;90371;-90
2023/07/02 04:16:38;;;;;;;4.80;3.97;;;24.20;56.90;;;;;;5029769;27;87577;-91
2023/07/02 04:19:04;;;;;;;4.93;4.00;;;24.30;56.10;;;;;;5027439;27;87505;-91
2023/07/02 04:21:30;;;;;;;5.72;4.60;;;24.30;55.90;;;;;;5027613;27;88060;-92
2023/07/02 04:23:55;;;;;;;5.63;4.45;;;24.30;55.90;;;;;;5027000;27;96273;-91
2023/07/02 04:26:21;;;;;;;6.38;4.80;;;24.40;55.70;;;;;;5028014;27;91130;-90
2023/07/02 04:28:47;;;;;;;5.60;4.90;;;24.40;55.60;;;;;;5027966;27;87957;-90
2023/07/02 04:31:12;;;;;;;4.95;4.45;;;24.40;55.70;;;;;;5029318;27;89368;-91
2023/07/02 04:33:39;;;;;;;4.30;3.88;;;24.50;55.70;;;;;;5025619;27;90557;-91
2023/07/02 04:36:05;;;;;;;4.90;4.28;;;24.50;55.40;;;;;;5027035;27;90186;-90
2023/07/02 04:38:31;;;;;;;5.53;4.30;;;24.50;55.50;;;;;;5028365;27;87383;-92
2023/07/02 04:41:04;;;;;;;5.72;4.60;;;24.50;55.40;;;;;;5028701;27;89433;-91
2023/07/02 04:43:33;;;;;;;5.75;4.25;;;24.40;55.40;;;;;;5026998;27;90616;-90
2023/07/02 04:46:00;;;;;;;5.85;4.75;;;24.50;55.30;;;;;;5027502;27;90291;-89
2023/07/02 04:48:25;;;;;;;5.57;4.03;;;24.40;55.40;;;;;;5029823;27;88375;-92
2023/07/02 04:50:51;;;;;;;7.15;4.50;;;24.30;55.50;;;;;;5020004;27;89977;-90
2023/07/02 04:53:17;;;;;;;6.03;4.90;;;24.30;55.70;;;;;;5026111;27;90698;-92
2023/07/02 04:55:43;;;;;;;5.22;4.22;;;24.20;56.10;;;;;;5025958;27;90185;-90
2023/07/02 04:58:09;;;;;;;4.80;4.13;;;24.10;56.30;;;;;;5026018;27;87644;-91
2023/07/02 05:00:35;;;;;;;5.82;4.50;;;24.00;56.50;;;;;;5027502;27;89731;-91
2023/07/02 05:03:00;;;;;;;5.53;4.72;;;24.00;56.50;;;;;;5031153;27;90945;-92
2023/07/02 05:05:26;;;;;;;6.28;5.47;;;24.00;56.60;;;;;;5030590;27;89809;-91
2023/07/02 05:07:51;;;;;;;5.93;4.40;;;24.00;56.50;;;;;;5032861;27;87706;-91
2023/07/02 05:10:17;;;;;;;6.03;5.25;;;23.90;56.70;;;;;;5032960;27;87258;-90
2023/07/02 05:12:43;;;;;;;7.43;5.00;;;24.00;56.80;;;;;;5030249;27;88711;-91
2023/07/02 05:15:09;;;;;;;7.57;5.60;;;24.00;56.80;;;;;;5029722;27;90776;-91
2023/07/02 05:17:36;;;;;;;6.28;4.80;;;24.00;56.80;;;;;;5031054;27;86854;-92
2023/07/02 05:20:04;;;;;;;7.95;5.55;;;23.90;56.80;;;;;;5031296;27;89237;-90
2023/07/02 05:22:30;;;;;;;8.03;5.53;;;23.90;56.60;;;;;;5032072;27;89171;-91
2023/07/02 05:24:55;;;;;;;6.15;4.72;;;23.90;57.00;;;;;;5030240;27;90481;-91
2023/07/02 05:27:21;;;;;;;5.75;4.97;;;23.90;57.60;;;;;;5032709;27;87117;-90
2023/07/02 05:29:46;;;;;;;5.90;4.93;;;23.90;57.40;;;;;;5031572;27;89460;-91
2023/07/02 05:32:12;;;;;;;6.22;4.97;;;23.90;56.80;;;;;;5030171;27;90580;-90
2023/07/02 05:34:38;;;;;;;6.57;5.10;;;24.00;57.00;;;;;;5030397;27;87853;-90
2023/07/02 05:37:03;;;;;;;7.28;5.25;;;23.90;56.80;;;;;;5031554;27;88071;-93
2023/07/02 05:39:30;;;;;;;7.22;5.45;;;24.00;56.70;;;;;;5030735;27;90275;-92
2023/07/02 05:41:56;;;;;;;6.68;5.47;;;23.90;56.70;;;;;;5030387;27;95837;-92
2023/07/02 05:44:22;;;;;;;6.20;5.15;;;23.90;56.80;;;;;;5028799;27;90058;-91
2023/07/02 05:46:47;;;;;;;7.43;5.80;;;24.00;56.80;;;;;;5029745;27;87295;-92
2023/07/02 05:49:13;;;;;;;7.60;5.78;;;24.00;56.60;;;;;;5030999;27;87526;-91
2023/07/02 05:51:38;;;;;;;7.93;5.88;;;24.00;56.50;;;;;;5029951;27;90671;-90
2023/07/02 05:54:04;;;;;;;7.45;5.13;;;24.00;56.60;;;;;;5031324;27;89896;-90
2023/07/02 05:56:30;;;;;;;8.30;6.03;;;24.00;56.60;;;;;;5032507;27;87465;-90
2023/07/02 05:58:55;;;;;;;6.10;5.28;;;24.00;56.70;;;;;;5029129;27;87989;-91
2023/07/02 06:01:21;;;;;;;6.75;5.47;;;24.00;56.60;;;;;;5028488;27;91507;-91
2023/07/02 06:03:49;;;;;;;6.95;6.05;;;24.00;56.70;;;;;;5030712;27;88571;-92
2023/07/02 06:06:15;;;;;;;12.02;8.25;;;24.00;56.60;;;;;;5024094;27;87624;-87
2023/07/02 06:08:41;;;;;;;11.18;7.03;;;24.00;56.00;;;;;;5022185;27;89800;-87
2023/07/02 06:11:06;;;;;;;9.10;7.35;;;24.10;55.80;;;;;;5020667;27;90630;-86
2023/07/02 06:13:32;;;;;;;10.88;7.50;;;24.10;55.90;;;;;;5019671;27;90546;-86
2023/07/02 06:15:57;;;;;;;11.55;7.90;;;24.00;55.60;;;;;;5021258;27;87228;-86
2023/07/02 06:18:23;;;;;;;11.70;8.23;;;24.10;55.90;;;;;;5022217;27;88343;-86
2023/07/02 06:20:50;;;;;;;28.88;18.98;;;24.10;55.70;;;;;;5022052;27;87508;-86
2023/07/02 06:23:16;;;;;;;94.78;64.05;;;24.20;55.30;;;;;;5025095;27;89017;-86
2023/07/02 06:25:41;;;;;;;186.23;127.18;;;24.30;55.70;;;;;;5021324;27;88877;-87
2023/07/02 06:28:07;;;;;;;177.55;117.97;;;24.30;55.10;;;;;;5021067;27;87551;-87
2023/07/02 06:30:32;;;;;;;151.02;107.28;;;24.30;54.90;;;;;;5020140;27;90593;-87
2023/07/02 06:32:58;;;;;;;125.00;84.75;;;24.30;54.90;;;;;;5021825;27;89241;-89
2023/07/02 06:35:24;;;;;;;138.63;90.25;;;24.30;54.50;;;;;;5022844;27;87680;-87
2023/07/02 06:37:49;;;;;;;94.25;59.15;;;24.30;54.40;;;;;;5021267;27;89792;-87
2023/07/02 06:40:15;;;;;;;96.32;56.88;;;24.30;54.20;;;;;;5019445;27;90859;-86
2023/07/02 06:42:41;;;;;;;80.75;48.00;;;24.30;54.10;;;;;;5019856;27;91107;-87
2023/07/02 06:45:07;;;;;;;66.68;41.22;;;24.30;53.90;;;;;;5022402;27;87765;-87
2023/07/02 06:47:33;;;;;;;60.65;36.28;;;24.20;53.90;;;;;;5022399;27;87651;-87
2023/07/02 06:49:59;;;;;;;56.80;33.92;;;24.20;53.80;;;;;;5021238;27;88506;-87
2023/07/02 06:52:24;;;;;;;51.80;31.55;;;24.10;53.90;;;;;;5019658;27;91119;-87
2023/07/02 06:54:51;;;;;;;49.50;30.15;;;24.20;54.00;;;;;;5020774;27;87702;-86
2023/07/02 06:57:16;;;;;;;53.88;30.80;;;24.10;53.90;;;;;;5022183;27;89844;-86
2023/07/02 06:59:42;;;;;;;44.45;27.27;;;24.20;53.70;;;;;;5018984;27;91006;-86
2023/07/02 07:02:08;;;;;;;44.67;27.98;;;24.20;53.90;;;;;;5019714;27;89389;-87
2023/07/02 07:04:36;;;;;;;51.67;27.80;;;24.10;53.80;;;;;;5020296;27;88053;-87
2023/07/02 07:07:04;;;;;;;49.35;26.55;;;24.10;53.90;;;;;;5018663;27;89503;-86
2023/07/02 07:09:30;;;;;;;44.07;26.80;;;24.10;54.10;;;;;;5021789;27;88735;-88
2023/07/02 07:11:56;;;;;;;46.28;25.48;;;24.20;54.10;;;;;;5019246;27;92462;-88
2023/07/02 07:14:22;;;;;;;42.22;23.50;;;24.20;53.80;;;;;;5013740;27;89653;-88
2023/07/02 07:16:48;;;;;;;39.33;23.90;;;24.20;53.80;;;;;;5021903;27;88009;-89
2023/07/02 07:19:14;;;;;;;47.05;25.02;;;24.20;53.50;;;;;;5020207;27;90198;-89
2023/07/02 07:21:40;;;;;;;46.67;24.25;;;24.20;53.80;;;;;;5019270;27;90431;-88
2023/07/02 07:24:05;;;;;;;120.00;42.03;;;24.20;53.60;;;;;;5018957;27;87503;-88
2023/07/02 07:26:34;;;;;;;180.75;56.70;;;24.20;53.80;;;;;;5017455;27;89488;-87
2023/07/02 07:28:59;;;;;;;137.90;45.73;;;24.20;53.70;;;;;;5017662;27;90245;-88
2023/07/02 07:31:25;;;;;;;101.35;37.83;;;24.10;53.80;;;;;;5017527;27;89042;-88
2023/07/02 07:33:51;;;;;;;91.30;34.67;;;24.10;53.70;;;;;;5018504;27;87740;-88
2023/07/02 07:36:17;;;;;;;72.82;29.90;;;24.20;53.60;;;;;;5019259;27;88201;-87
2023/07/02 07:38:45;;;;;;;69.22;29.83;;;24.10;53.60;;;;;;5018221;27;90538;-89
2023/07/02 07:41:11;;;;;;;58.85;27.00;;;24.10;53.70;;;;;;5020928;27;90804;-87
2023/07/02 07:43:37;;;;;;;61.03;26.88;;;24.10;53.60;;;;;;5018216;27;87695;-89
2023/07/02 07:46:02;;;;;;;51.78;27.02;;;24.10;53.60;;;;;;5018349;27;89387;-88
2023/07/02 07:48:28;;;;;;;71.30;31.15;;;24.20;53.50;;;;;;5021185;27;88316;-87
2023/07/02 07:50:54;;;;;;;62.42;28.75;;;24.10;53.70;;;;;;5020750;27;87591;-87
2023/07/02 07:53:19;;;;;;;55.63;27.42;;;24.20;53.60;;;;;;5021151;27;87825;-88
2023/07/02 07:55:45;;;;;;;47.17;25.05;;;24.30;53.90;;;;;;5019909;27;89629;-87
2023/07/02 07:58:10;;;;;;;47.83;22.90;;;24.30;53.80;;;;;;5021230;27;92207;-87
2023/07/02 08:00:37;;;;;;;48.65;24.70;;;24.30;54.10;;;;;;5019523;27;90058;-87
2023/07/02 08:03:03;;;;;;;49.47;23.63;;;24.40;54.00;;;;;;5020078;27;89293;-88
2023/07/02 08:05:29;;;;;;;46.28;24.67;;;24.30;54.00;;;;;;5019406;27;89270;-88
2023/07/02 08:07:55;;;;;;;46.40;24.05;;;24.30;54.10;;;;;;5018032;27;89701;-87
2023/07/02 08:10:21;;;;;;;40.33;22.85;;;24.20;54.40;;;;;;5020087;27;90811;-87
2023/07/02 08:12:48;;;;;;;45.20;24.33;;;24.30;54.30;;;;;;5019506;27;87809;-87
2023/07/02 08:15:13;;;;;;;44.70;23.67;;;24.20;54.40;;;;;;5020957;27;89844;-87
2023/07/02 08:17:39;;;;;;;47.25;23.10;;;24.20;54.50;;;;;;5015517;27;89707;-86
2023/07/02 08:20:09;;;;;;;42.03;22.63;;;24.30;54.60;;;;;;5017451;27;89285;-87
2023/07/02 08:22:36;;;;;;;45.78;23.20;;;24.40;54.30;;;;;;5017536;27;88119;-89
2023/07/02 08:25:02;;;;;;;42.38;21.40;;;24.40;54.30;;;;;;5022151;27;89680;-87
2023/07/02 08:27:28;;;;;;;43.63;21.55;;;24.40;53.90;;;;;;5018480;27;90074;-85
2023/07/02 08:29:53;;;;;;;40.47;21.27;;;24.50;53.90;;;;;;5014947;27;90932;-86
2023/07/02 08:32:19;;;;;;;35.38;20.98;;;24.40;54.10;;;;;;5017948;27;88332;-86
2023/07/02 08:34:45;;;;;;;38.47;18.60;;;24.30;54.20;;;;;;5016172;27;89165;-85
2023/07/02 08:37:10;;;;;;;32.83;19.35;;;24.30;53.80;;;;;;5020854;27;90905;-86
2023/07/02 08:39:39;;;;;;;32.65;18.70;;;24.30;53.70;;;;;;5021218;27;91441;-87
2023/07/02 08:42:05;;;;;;;37.40;20.00;;;24.40;53.30;;;;;;5024415;27;87519;-87
2023/07/02 08:44:31;;;;;;;34.30;19.10;;;24.30;53.40;;;;;;5020924;27;87007;-85
2023/07/02 08:46:57;;;;;;;33.40;19.48;;;24.30;53.50;;;;;;5036382;27;90329;-85
2023/07/02 08:49:23;;;;;;;33.50;18.27;;;24.30;53.70;;;;;;5021938;27;89160;-85
2023/07/02 08:51:48;;;;;;;32.78;17.95;;;24.30;53.30;;;;;;5021864;27;88811;-86
2023/07/02 08:54:16;;;;;;;30.10;17.38;;;24.40;52.70;;;;;;5024936;27;88056;-87
2023/07/02 08:56:42;;;;;;;27.27;15.77;;;24.40;52.70;;;;;;5022042;27;90046;-87
2023/07/02 08:59:08;;;;;;;27.88;17.20;;;24.40;52.70;;;;;;5022197;27;90285;-86
2023/07/02 09:01:48;;;;;;;31.45;17.02;;;24.40;52.50;;;;;;5021995;27;87475;-87
2023/07/02 09:04:24;;;;;;;30.52;16.83;;;24.40;52.60;;;;;;5022617;27;88336;-87
2023/07/02 09:07:02;;;;;;;34.08;18.20;;;24.30;52.60;;;;;;5020993;27;90623;-87
2023/07/02 09:09:28;;;;;;;29.48;17.48;;;24.30;52.00;;;;;;5024056;27;88547;-87
2023/07/02 09:11:54;;;;;;;28.52;16.77;;;24.30;50.90;;;;;;5021430;27;87505;-87
2023/07/02 09:14:30;;;;;;;31.13;16.48;;;24.30;50.70;;;;;;5020927;27;89892;-87
2023/07/02 09:17:06;;;;;;;37.05;17.13;;;24.20;51.00;;;;;;5023029;27;90530;-85
2023/07/02 09:19:33;;;;;;;26.38;14.52;;;24.30;50.80;;;;;;5020534;27;91646;-86
2023/07/02 09:22:00;;;;;;;24.50;14.13;;;24.40;50.40;;;;;;5022351;27;88354;-87
2023/07/02 09:24:27;;;;;;;23.58;13.90;;;24.30;50.10;;;;;;5022459;27;91257;-86
2023/07/02 09:26:55;;;;;;;27.80;14.57;;;24.20;49.80;;;;;;5021836;27;90489;-86
2023/07/02 09:29:29;;;;;;;25.63;14.37;;;24.20;50.30;;;;;;5022180;27;90002;-87
2023/07/02 09:31:57;;;;;;;25.38;14.52;;;24.30;50.40;;;;;;5021885;27;87677;-87
2023/07/02 09:34:30;;;;;;;27.02;14.38;;;24.20;50.90;;;;;;5022639;27;87962;-87
2023/07/02 09:36:57;;;;;;;23.65;13.05;;;24.20;50.30;;;;;;5038263;27;90661;-87
2023/07/02 09:39:31;;;;;;;23.60;12.02;;;24.20;50.00;;;;;;5023868;27;88034;-87
2023/07/02 09:41:59;;;;;;;25.42;11.70;;;24.30;48.90;;;;;;5021729;27;90436;-86
2023/07/02 09:44:30;;;;;;;26.92;11.25;;;24.30;48.50;;;;;;5021010;27;89292;-86
2023/07/02 09:47:04;;;;;;;18.23;10.20;;;24.30;47.60;;;;;;5021592;27;87971;-86
2023/07/02 09:49:37;;;;;;;22.98;11.95;;;24.30;47.60;;;;;;5020804;27;88164;-87
2023/07/02 09:52:07;;;;;;;23.50;12.20;;;24.30;47.20;;;;;;5020950;27;87932;-86
2023/07/02 09:54:33;;;;;;;22.90;12.18;;;24.40;47.60;;;;;;5021142;27;89820;-86
2023/07/02 09:56:59;;;;;;;28.25;11.90;;;24.40;48.00;;;;;;5022480;27;90603;-86
2023/07/02 09:59:26;;;;;;;29.63;12.60;;;24.40;47.60;;;;;;5017115;27;87962;-87
2023/07/02 10:01:52;;;;;;;44.33;15.07;;;24.40;47.20;;;;;;5021593;27;87749;-85
2023/07/02 10:04:19;;;;;;;51.38;18.70;;;24.30;47.70;;;;;;5022259;27;87133;-86
2023/07/02 10:06:53;;;;;;;79.47;29.55;;;24.30;47.40;;;;;;5021198;27;88622;-87
2023/07/02 10:09:20;;;;;;;57.38;20.65;;;24.30;48.60;;;;;;5023922;27;88253;-86
2023/07/02 10:11:46;;;;;;;40.22;15.35;;;24.30;46.80;;;;;;5023411;27;89022;-86
2023/07/02 10:14:12;;;;;;;29.45;12.63;;;24.30;45.60;;;;;;5021607;27;87967;-86
2023/07/02 10:16:54;;;;;;;30.88;11.48;;;24.30;44.80;;;;;;5020223;27;90902;-86
2023/07/02 10:19:20;;;;;;;26.92;11.20;;;24.20;44.20;;;;;;5019510;27;90254;-86
2023/07/02 10:21:48;;;;;;;23.85;10.57;;;24.20;44.80;;;;;;5022657;27;87812;-86
2023/07/02 10:24:16;;;;;;;27.33;11.57;;;24.20;44.20;;;;;;5020914;27;89601;-86
2023/07/02 10:26:59;;;;;;;18.92;10.20;;;24.20;44.30;;;;;;5022694;27;88559;-86
2023/07/02 10:29:25;;;;;;;19.30;10.02;;;24.20;44.30;;;;;;5021697;27;88432;-85
2023/07/02 10:31:53;;;;;;;22.05;11.15;;;24.20;44.70;;;;;;5019833;27;88860;-86
2023/07/02 10:34:39;;;;;;;19.02;11.00;;;24.20;45.10;;;;;;5022399;27;87728;-86
2023/07/02 10:37:05;;;;;;;25.02;11.18;;;24.20;45.60;;;;;;5020888;27;91897;-87
2023/07/02 10:39:32;;;;;;;21.27;11.02;;;24.10;45.40;;;;;;5021471;27;90190;-86
2023/07/02 10:42:07;;;;;;;20.63;11.00;;;24.20;45.60;;;;;;5023636;27;87536;-86
2023/07/02 10:44:34;;;;;;;22.92;10.85;;;24.30;46.10;;;;;;5021937;27;89342;-87
2023/07/02 10:47:00;;;;;;;19.23;10.88;;;24.30;46.50;;;;;;5023303;27;87916;-86
2023/07/02 10:49:32;;;;;;;25.55;11.63;;;24.30;46.50;;;;;;5019581;27;90043;-86
2023/07/02 10:52:03;;;;;;;23.80;11.68;;;24.30;46.60;;;;;;5019263;27;87387;-86
2023/07/02 10:54:46;;;;;;;23.52;11.27;;;24.30;47.00;;;;;;5021171;27;89437;-86
2023/07/02 10:57:21;;;;;;;18.52;10.73;;;24.20;46.60;;;;;;5021556;27;93347;-87
2023/07/02 10:59:48;;;;;;;22.38;11.13;;;24.20;47.30;;;;;;5019296;27;91237;-86
2023/07/02 11:02:17;;;;;;;23.33;11.30;;;24.30;46.90;;;;;;5019961;27;87498;-87
2023/07/02 11:04:42;;;;;;;;;;;24.30;46.90;;;;;;5023167;27;87576;-86
2023/07/02 11:07:11;;;;;;;21.17;11.73;;;24.30;47.00;;;;;;5024572;27;88021;-86
2023/07/02 11:09:37;;;;;;;24.48;12.55;;;24.40;46.30;;;;;;5020162;27;87930;-87
2023/07/02 11:12:02;;;;;;;22.80;11.45;;;24.40;45.80;;;;;;5022991;27;87980;-88
2023/07/02 11:14:33;;;;;;;20.45;12.07;;;24.30;46.00;;;;;;5021065;27;90756;-87
2023/07/02 11:17:02;;;;;;;20.77;12.00;;;24.30;46.30;;;;;;5022164;27;91188;-87
2023/07/02 11:19:27;;;;;;;27.27;12.70;;;24.30;46.50;;;;;;5020329;27;90898;-87
2023/07/02 11:21:58;;;;;;;22.77;12.40;;;24.30;46.80;;;;;;5023656;27;88466;-88
2023/07/02 11:24:35;;;;;;;22.65;13.05;;;24.30;46.90;;;;;;5038183;27;89234;-87
2023/07/02 11:27:02;;;;;;;23.60;11.85;;;24.20;47.30;;;;;;5021435;27;94480;-88
2023/07/02 11:29:34;;;;;;;22.25;12.30;;;24.20;47.30;;;;;;5024661;27;90352;-90
2023/07/02 11:32:09;;;;;;;26.33;13.18;;;24.30;47.10;;;;;;5022868;27;88076;-89
2023/07/02 11:34:36;;;;;;;22.55;13.07;;;24.30;47.20;;;;;;5021761;27;89272;-87
2023/07/02 11:37:02;;;;;;;25.90;12.73;;;24.30;47.70;;;;;;5022470;27;89677;-88
2023/07/02 11:39:28;;;;;;;22.20;12.52;;;24.30;48.20;;;;;;5023047;27;89123;-87
2023/07/02 11:41:53;;;;;;;25.45;13.75;;;24.30;49.60;;;;;;5019780;27;87290;-86
2023/07/02 11:44:19;;;;;;;28.27;14.43;;;24.30;50.40;;;;;;5020947;27;89316;-87
2023/07/02 11:46:46;;;;;;;27.67;13.63;;;24.20;50.00;;;;;;5021358;27;89635;-87
2023/07/02 11:49:12;;;;;;;25.30;13.00;;;24.30;50.80;;;;;;5019515;27;91318;-86
2023/07/02 11:51:39;;;;;;;25.70;14.07;;;24.20;50.40;;;;;;5022654;27;87908;-90
2023/07/02 11:54:05;;;;;;;24.40;13.30;;;24.40;50.20;;;;;;5023099;27;89120;-86
2023/07/02 11:56:32;;;;;;;24.35;13.43;;;24.40;49.10;;;;;;5018174;27;91600;-84
2023/07/02 11:58:58;;;;;;;23.33;12.30;;;24.40;49.10;;;;;;5021135;27;87557;-85
2023/07/02 12:01:24;;;;;;;28.00;13.38;;;24.30;49.40;;;;;;5019129;27;87721;-85
2023/07/02 12:03:49;;;;;;;24.00;12.85;;;24.30;49.50;;;;;;5020804;27;87114;-87
2023/07/02 12:06:15;;;;;;;25.55;13.52;;;24.30;49.40;;;;;;5019703;27;90348;-85
2023/07/02 12:08:41;;;;;;;28.00;13.55;;;24.30;49.50;;;;;;5019392;27;90212;-85
2023/07/02 12:11:07;;;;;;;22.83;12.80;;;24.30;49.40;;;;;;5021082;27;87942;-87
2023/07/02 12:13:32;;;;;;;23.48;13.05;;;24.30;49.30;;;;;;5023204;27;87593;-86
2023/07/02 12:15:58;;;;;;;23.27;12.60;;;24.30;48.80;;;;;;5021947;27;90693;-86
2023/07/02 12:18:23;;;;;;;22.23;12.00;;;24.30;48.60;;;;;;5021914;27;88999;-86
2023/07/02 12:20:49;;;;;;;20.17;12.80;;;24.30;48.70;;;;;;5023367;27;88186;-85
2023/07/02 12:23:15;;;;;;;22.92;12.38;;;24.30;48.20;;;;;;5023381;27;87402;-85
2023/07/02 12:25:40;;;;;;;22.52;11.68;;;24.30;47.90;;;;;;5022598;27;89656;-87
2023/07/02 12:28:06;;;;;;;25.33;11.57;;;24.30;48.50;;;;;;5024026;27;90379;-87
2023/07/02 12:30:32;;;;;;;23.48;12.30;;;24.40;47.90;;;;;;5023539;27;87503;-88
2023/07/02 12:32:58;;;;;;;25.05;11.57;;;24.40;48.10;;;;;;5032246;27;88030;-91